PWSweather.com
Personal Weather Stations
Station Observations
METEOTORRE
Torrevecchia TeatinaIT

Torrevecchia TeatinaIT

Lat: 42.394, Lon: 14.215

Elevation: 688

Station Type: Davis VP2

Latest ConditionsUpdated 8:45:06 AM GMT+01:01 Thursday, Dec 12, 2019
Currently Today's Max Today's Min Today's Average
Temperature 42.6°F5.9°C 42.6°F5.9°C 38.4°F3.6°C 39.8°F4.3°C
Dew Point 34.2°F1.2°C 34.2°F1.2°C 32.2°F0.1°C 33.1°F0.6°C
Winds 3.0 mph SE4.8 kmh SE 6.0 mph -9.7 kmh - - 2.3 mph 3.7 kmh
Wind Gusts 5.0 mph8.0 kmh 8.0 mph12.9 kmh - -
Humidity 72% 79% 72% 77%
Pressure 29.68 in1005.1 mb 29.79 in1008.8 mb 29.68 in1005.1 mb -
Hour Temp Dew Point Humidity Winds Wind Gusts Pressure Precip Precip Rate Daily Precip Total
08:45 AM 42.6°F5.9°C 34.2°F1.2°C 72% 3.0 mph SE4.8 kmh SE 5.0 mph8.0 kmh 29.68 in1005.1 mb 0.00 in0.0 mm 0.00 in0.0 mm 0.00 in0.0 mm
08:40 AM 42.3°F5.7°C 34.2°F1.2°C 73% 3.0 mph S4.8 kmh S 6.0 mph9.7 kmh 29.68 in1005.1 mb 0.00 in0.0 mm 0.00 in0.0 mm 0.00 in0.0 mm
08:35 AM 42.1°F5.6°C 34.0°F1.1°C 73% Calm Calm 8.0 mph12.9 kmh 29.68 in1005.1 mb 0.00 in0.0 mm 0.00 in0.0 mm 0.00 in0.0 mm
08:30 AM 41.8°F5.4°C 34.1°F1.2°C 74% 2.0 mph S3.2 kmh S 5.0 mph8.0 kmh 29.68 in1005.1 mb 0.00 in0.0 mm 0.00 in0.0 mm 0.00 in0.0 mm
08:25 AM 41.6°F5.3°C 33.9°F1.1°C 74% 2.0 mph S3.2 kmh S 6.0 mph9.7 kmh 29.68 in1005.1 mb 0.00 in0.0 mm 0.00 in0.0 mm 0.00 in0.0 mm
08:20 AM 41.4°F5.2°C 34.0°F1.1°C 75% 1.0 mph S1.6 kmh S 7.0 mph11.3 kmh 29.68 in1005.1 mb 0.00 in0.0 mm 0.00 in0.0 mm 0.00 in0.0 mm
08:15 AM 41.3°F5.2°C 33.9°F1.1°C 75% 5.0 mph S8.0 kmh S 4.0 mph6.4 kmh 29.68 in1005.1 mb 0.00 in0.0 mm 0.00 in0.0 mm 0.00 in0.0 mm
08:10 AM 41.1°F5.1°C 33.7°F0.9°C 75% 1.0 mph S1.6 kmh S 4.0 mph6.4 kmh 29.68 in1005.1 mb 0.00 in0.0 mm 0.00 in0.0 mm 0.00 in0.0 mm
08:05 AM 40.8°F4.9°C 33.5°F0.8°C 75% 3.0 mph SSW4.8 kmh SSW 4.0 mph6.4 kmh 29.68 in1005.1 mb 0.00 in0.0 mm 0.00 in0.0 mm 0.00 in0.0 mm
08:00 AM 40.7°F4.8°C 33.4°F0.8°C 75% 1.0 mph S1.6 kmh S 4.0 mph6.4 kmh 29.68 in1005.1 mb 0.00 in0.0 mm 0.00 in0.0 mm 0.00 in0.0 mm
07:55 AM 40.5°F4.7°C 33.5°F0.8°C 76% Calm Calm 4.0 mph6.4 kmh 29.68 in1005.1 mb 0.00 in0.0 mm 0.00 in0.0 mm 0.00 in0.0 mm
07:50 AM 40.3°F4.6°C 33.3°F0.7°C 76% 3.0 mph S4.8 kmh S 3.0 mph4.8 kmh 29.68 in1005.1 mb 0.00 in0.0 mm 0.00 in0.0 mm 0.00 in0.0 mm
07:45 AM 40.0°F4.4°C 33.0°F0.6°C 76% 2.0 mph S3.2 kmh S 3.0 mph4.8 kmh 29.68 in1005.1 mb 0.00 in0.0 mm 0.00 in0.0 mm 0.00 in0.0 mm
07:40 AM 39.9°F4.4°C 32.9°F0.5°C 76% Calm Calm 4.0 mph6.4 kmh 29.68 in1005.1 mb 0.00 in0.0 mm 0.00 in0.0 mm 0.00 in0.0 mm
07:35 AM 39.9°F4.4°C 33.2°F0.7°C 77% 2.0 mph SW3.2 kmh SW 4.0 mph6.4 kmh 29.68 in1005.1 mb 0.00 in0.0 mm 0.00 in0.0 mm 0.00 in0.0 mm
07:30 AM 39.8°F4.3°C 33.1°F0.6°C 77% Calm Calm 4.0 mph6.4 kmh 29.68 in1005.1 mb 0.00 in0.0 mm 0.00 in0.0 mm 0.00 in0.0 mm
07:25 AM 39.6°F4.2°C 33.3°F0.7°C 78% 2.0 mph SSW3.2 kmh SSW 5.0 mph8.0 kmh 29.69 in1005.4 mb 0.00 in0.0 mm 0.00 in0.0 mm 0.00 in0.0 mm
07:20 AM 39.3°F4.1°C 33.0°F0.6°C 78% 1.0 mph SSW1.6 kmh SSW 4.0 mph6.4 kmh 29.68 in1005.1 mb 0.00 in0.0 mm 0.00 in0.0 mm 0.00 in0.0 mm
07:15 AM 39.1°F3.9°C 32.8°F0.4°C 78% 4.0 mph SW6.4 kmh SW 4.0 mph6.4 kmh 29.68 in1005.1 mb 0.00 in0.0 mm 0.00 in0.0 mm 0.00 in0.0 mm
07:10 AM 38.8°F3.8°C 32.8°F0.4°C 79% 2.0 mph WSW3.2 kmh WSW 4.0 mph6.4 kmh 29.68 in1005.1 mb 0.00 in0.0 mm 0.00 in0.0 mm 0.00 in0.0 mm
07:05 AM 38.7°F3.7°C 32.7°F0.4°C 79% 3.0 mph W4.8 kmh W 4.0 mph6.4 kmh 29.68 in1005.1 mb 0.00 in0.0 mm 0.00 in0.0 mm 0.00 in0.0 mm
07:00 AM 38.6°F3.7°C 32.3°F0.2°C 78% 3.0 mph W4.8 kmh W 4.0 mph6.4 kmh 29.69 in1005.4 mb 0.00 in0.0 mm 0.00 in0.0 mm 0.00 in0.0 mm
06:55 AM 38.7°F3.7°C 32.4°F0.2°C 78% 3.0 mph W4.8 kmh W 4.0 mph6.4 kmh 29.69 in1005.4 mb 0.00 in0.0 mm 0.00 in0.0 mm 0.00 in0.0 mm
06:50 AM 38.9°F3.8°C 32.6°F0.3°C 78% 3.0 mph W4.8 kmh W 4.0 mph6.4 kmh 29.69 in1005.4 mb 0.00 in0.0 mm 0.00 in0.0 mm 0.00 in0.0 mm
06:45 AM 39.0°F3.9°C 32.7°F0.4°C 78% 3.0 mph W4.8 kmh W 4.0 mph6.4 kmh 29.69 in1005.4 mb 0.00 in0.0 mm 0.00 in0.0 mm 0.00 in0.0 mm
06:40 AM 39.1°F3.9°C 32.8°F0.4°C 78% 3.0 mph W4.8 kmh W 4.0 mph6.4 kmh 29.69 in1005.4 mb 0.00 in0.0 mm 0.00 in0.0 mm 0.00 in0.0 mm
06:35 AM 39.1°F3.9°C 32.8°F0.4°C 78% 2.0 mph W3.2 kmh W 4.0 mph6.4 kmh 29.69 in1005.4 mb 0.00 in0.0 mm 0.00 in0.0 mm 0.00 in0.0 mm
06:30 AM 39.2°F4.0°C 32.9°F0.5°C 78% 2.0 mph W3.2 kmh W 4.0 mph6.4 kmh 29.69 in1005.4 mb 0.00 in0.0 mm 0.00 in0.0 mm 0.00 in0.0 mm
06:25 AM 39.2°F4.0°C 32.9°F0.5°C 78% 2.0 mph W3.2 kmh W 4.0 mph6.4 kmh 29.70 in1005.8 mb 0.00 in0.0 mm 0.00 in0.0 mm 0.00 in0.0 mm
06:20 AM 39.3°F4.1°C 33.0°F0.6°C 78% 3.0 mph W4.8 kmh W 3.0 mph4.8 kmh 29.69 in1005.4 mb 0.00 in0.0 mm 0.00 in0.0 mm 0.00 in0.0 mm
06:15 AM 39.4°F4.1°C 33.1°F0.6°C 78% 2.0 mph W3.2 kmh W 3.0 mph4.8 kmh 29.69 in1005.4 mb 0.00 in0.0 mm 0.00 in0.0 mm 0.00 in0.0 mm
06:10 AM 39.2°F4.0°C 33.2°F0.7°C 79% 2.0 mph W3.2 kmh W 4.0 mph6.4 kmh 29.69 in1005.4 mb 0.00 in0.0 mm 0.00 in0.0 mm 0.00 in0.0 mm
06:05 AM 38.9°F3.8°C 32.9°F0.5°C 79% 2.0 mph W3.2 kmh W 3.0 mph4.8 kmh 29.70 in1005.8 mb 0.00 in0.0 mm 0.00 in0.0 mm 0.00 in0.0 mm
06:00 AM 38.6°F3.7°C 32.6°F0.3°C 79% 2.0 mph W3.2 kmh W 3.0 mph4.8 kmh 29.70 in1005.8 mb 0.00 in0.0 mm 0.00 in0.0 mm 0.00 in0.0 mm
05:55 AM 38.5°F3.6°C 32.5°F0.3°C 79% 2.0 mph W3.2 kmh W 3.0 mph4.8 kmh 29.69 in1005.4 mb 0.00 in0.0 mm 0.00 in0.0 mm 0.00 in0.0 mm
05:50 AM 38.4°F3.6°C 32.4°F0.2°C 79% 2.0 mph W3.2 kmh W 2.0 mph3.2 kmh 29.70 in1005.8 mb 0.00 in0.0 mm 0.00 in0.0 mm 0.00 in0.0 mm
05:45 AM 38.5°F3.6°C 32.2°F0.1°C 78% 1.0 mph W1.6 kmh W 4.0 mph6.4 kmh 29.69 in1005.4 mb 0.00 in0.0 mm 0.00 in0.0 mm 0.00 in0.0 mm
05:40 AM 38.7°F3.7°C 32.4°F0.2°C 78% 2.0 mph W3.2 kmh W 3.0 mph4.8 kmh 29.70 in1005.8 mb 0.00 in0.0 mm 0.00 in0.0 mm 0.00 in0.0 mm
05:35 AM 38.9°F3.8°C 32.6°F0.3°C 78% 2.0 mph W3.2 kmh W 3.0 mph4.8 kmh 29.70 in1005.8 mb 0.00 in0.0 mm 0.00 in0.0 mm 0.00 in0.0 mm
05:30 AM 38.9°F3.8°C 32.6°F0.3°C 78% 2.0 mph W3.2 kmh W -- 29.70 in1005.8 mb 0.00 in0.0 mm 0.00 in0.0 mm 0.00 in0.0 mm
05:25 AM 39.0°F3.9°C 32.7°F0.4°C 78% Calm Calm -- 29.70 in1005.8 mb 0.00 in0.0 mm 0.00 in0.0 mm 0.00 in0.0 mm
05:20 AM 39.1°F3.9°C 32.8°F0.4°C 78% Calm Calm 1.0 mph1.6 kmh 29.70 in1005.8 mb 0.00 in0.0 mm 0.00 in0.0 mm 0.00 in0.0 mm
05:15 AM 39.2°F4.0°C 32.6°F0.3°C 77% Calm Calm 2.0 mph3.2 kmh 29.70 in1005.8 mb 0.00 in0.0 mm 0.00 in0.0 mm 0.00 in0.0 mm
05:10 AM 39.3°F4.1°C 32.7°F0.4°C 77% Calm Calm 3.0 mph4.8 kmh 29.70 in1005.8 mb 0.00 in0.0 mm 0.00 in0.0 mm 0.00 in0.0 mm
05:05 AM 39.5°F4.2°C 32.8°F0.4°C 77% Calm Calm 3.0 mph4.8 kmh 29.70 in1005.8 mb 0.00 in0.0 mm 0.00 in0.0 mm 0.00 in0.0 mm
05:00 AM 39.8°F4.3°C 32.8°F0.4°C 76% 1.0 mph SW1.6 kmh SW 2.0 mph3.2 kmh 29.70 in1005.8 mb 0.00 in0.0 mm 0.00 in0.0 mm 0.00 in0.0 mm
04:55 AM 40.1°F4.5°C 33.1°F0.6°C 76% 1.0 mph SW1.6 kmh SW 3.0 mph4.8 kmh 29.70 in1005.8 mb 0.00 in0.0 mm 0.00 in0.0 mm 0.00 in0.0 mm
04:50 AM 40.4°F4.7°C 33.1°F0.6°C 75% 1.0 mph SW1.6 kmh SW 2.0 mph3.2 kmh 29.70 in1005.8 mb 0.00 in0.0 mm 0.00 in0.0 mm 0.00 in0.0 mm
04:45 AM 40.8°F4.9°C 33.5°F0.8°C 75% 2.0 mph SW3.2 kmh SW 2.0 mph3.2 kmh 29.70 in1005.8 mb 0.00 in0.0 mm 0.00 in0.0 mm 0.00 in0.0 mm
04:40 AM 40.8°F4.9°C 33.8°F1.0°C 76% Calm Calm 3.0 mph4.8 kmh 29.70 in1005.8 mb 0.00 in0.0 mm 0.00 in0.0 mm 0.00 in0.0 mm
04:35 AM 40.7°F4.8°C 33.7°F0.9°C 76% 1.0 mph SW1.6 kmh SW 4.0 mph6.4 kmh 29.70 in1005.8 mb 0.00 in0.0 mm 0.00 in0.0 mm 0.00 in0.0 mm
04:30 AM 40.5°F4.7°C 33.5°F0.8°C 76% 2.0 mph SW3.2 kmh SW 3.0 mph4.8 kmh 29.70 in1005.8 mb 0.00 in0.0 mm 0.00 in0.0 mm 0.00 in0.0 mm
04:25 AM 40.4°F4.7°C 33.4°F0.8°C 76% 2.0 mph WSW3.2 kmh WSW 2.0 mph3.2 kmh 29.70 in1005.8 mb 0.00 in0.0 mm 0.00 in0.0 mm 0.00 in0.0 mm
04:20 AM 40.4°F4.7°C 33.4°F0.8°C 76% 2.0 mph WSW3.2 kmh WSW 3.0 mph4.8 kmh 29.70 in1005.8 mb 0.00 in0.0 mm 0.00 in0.0 mm 0.00 in0.0 mm
04:15 AM 40.4°F4.7°C 33.4°F0.8°C 76% 1.0 mph WSW1.6 kmh WSW 2.0 mph3.2 kmh 29.71 in1006.1 mb 0.00 in0.0 mm 0.00 in0.0 mm 0.00 in0.0 mm
04:10 AM 40.3°F4.6°C 33.6°F0.9°C 77% 2.0 mph WSW3.2 kmh WSW 2.0 mph3.2 kmh 29.71 in1006.1 mb 0.00 in0.0 mm 0.00 in0.0 mm 0.00 in0.0 mm
04:05 AM 40.3°F4.6°C 33.6°F0.9°C 77% 2.0 mph WSW3.2 kmh WSW 3.0 mph4.8 kmh 29.71 in1006.1 mb 0.00 in0.0 mm 0.00 in0.0 mm 0.00 in0.0 mm
04:00 AM 40.2°F4.6°C 33.5°F0.8°C 77% 2.0 mph WSW3.2 kmh WSW 3.0 mph4.8 kmh 29.71 in1006.1 mb 0.00 in0.0 mm 0.00 in0.0 mm 0.00 in0.0 mm
03:55 AM 40.0°F4.4°C 33.7°F0.9°C 78% 1.0 mph WSW1.6 kmh WSW 3.0 mph4.8 kmh 29.71 in1006.1 mb 0.00 in0.0 mm 0.00 in0.0 mm 0.00 in0.0 mm
03:50 AM 39.6°F4.2°C 33.3°F0.7°C 78% 3.0 mph WSW4.8 kmh WSW -- 29.71 in1006.1 mb 0.00 in0.0 mm 0.00 in0.0 mm 0.00 in0.0 mm
03:45 AM 39.3°F4.1°C 33.0°F0.6°C 78% Calm Calm 2.0 mph3.2 kmh 29.71 in1006.1 mb 0.00 in0.0 mm 0.00 in0.0 mm 0.00 in0.0 mm
03:40 AM 39.2°F4.0°C 33.2°F0.7°C 79% Calm Calm 3.0 mph4.8 kmh 29.71 in1006.1 mb 0.00 in0.0 mm 0.00 in0.0 mm 0.00 in0.0 mm
03:35 AM 38.9°F3.8°C 32.9°F0.5°C 79% 2.0 mph WSW3.2 kmh WSW 3.0 mph4.8 kmh 29.71 in1006.1 mb 0.00 in0.0 mm 0.00 in0.0 mm 0.00 in0.0 mm
03:30 AM 38.8°F3.8°C 32.5°F0.3°C 78% 2.0 mph WSW3.2 kmh WSW 3.0 mph4.8 kmh 29.71 in1006.1 mb 0.00 in0.0 mm 0.00 in0.0 mm 0.00 in0.0 mm
03:25 AM 38.9°F3.8°C 32.6°F0.3°C 78% 3.0 mph WSW4.8 kmh WSW 3.0 mph4.8 kmh 29.72 in1006.4 mb 0.00 in0.0 mm 0.00 in0.0 mm 0.00 in0.0 mm
03:20 AM 39.0°F3.9°C 32.7°F0.4°C 78% 2.0 mph WSW3.2 kmh WSW 4.0 mph6.4 kmh 29.72 in1006.4 mb 0.00 in0.0 mm 0.00 in0.0 mm 0.00 in0.0 mm
03:15 AM 39.1°F3.9°C 32.8°F0.4°C 78% 1.0 mph WSW1.6 kmh WSW 4.0 mph6.4 kmh 29.72 in1006.4 mb 0.00 in0.0 mm 0.00 in0.0 mm 0.00 in0.0 mm
03:10 AM 39.3°F4.1°C 32.7°F0.4°C 77% 4.0 mph 6.4 kmh 4.0 mph6.4 kmh 29.72 in1006.4 mb 0.00 in0.0 mm 0.00 in0.0 mm 0.00 in0.0 mm
03:05 AM 39.3°F4.1°C 33.0°F0.6°C 78% 4.0 mph 6.4 kmh 4.0 mph6.4 kmh 29.73 in1006.8 mb 0.00 in0.0 mm 0.00 in0.0 mm 0.00 in0.0 mm
03:00 AM 39.4°F4.1°C 33.1°F0.6°C 78% 3.0 mph 4.8 kmh 4.0 mph6.4 kmh 29.73 in1006.8 mb 0.00 in0.0 mm 0.00 in0.0 mm 0.00 in0.0 mm
02:55 AM 39.5°F4.2°C 32.8°F0.4°C 77% 3.0 mph WSW4.8 kmh WSW 4.0 mph6.4 kmh 29.73 in1006.8 mb 0.00 in0.0 mm 0.00 in0.0 mm 0.00 in0.0 mm
02:50 AM 39.6°F4.2°C 32.9°F0.5°C 77% 2.0 mph WSW3.2 kmh WSW 3.0 mph4.8 kmh 29.73 in1006.8 mb 0.00 in0.0 mm 0.00 in0.0 mm 0.00 in0.0 mm
02:45 AM 39.6°F4.2°C 32.9°F0.5°C 77% 3.0 mph WSW4.8 kmh WSW 3.0 mph4.8 kmh 29.73 in1006.8 mb 0.00 in0.0 mm 0.00 in0.0 mm 0.00 in0.0 mm
02:40 AM 39.7°F4.3°C 33.0°F0.6°C 77% 3.0 mph WSW4.8 kmh WSW 3.0 mph4.8 kmh 29.73 in1006.8 mb 0.00 in0.0 mm 0.00 in0.0 mm 0.00 in0.0 mm
02:35 AM 39.9°F4.4°C 33.2°F0.7°C 77% 1.0 mph WSW1.6 kmh WSW 3.0 mph4.8 kmh 29.74 in1007.1 mb 0.00 in0.0 mm 0.00 in0.0 mm 0.00 in0.0 mm
02:30 AM 40.0°F4.4°C 33.3°F0.7°C 77% 2.0 mph WSW3.2 kmh WSW 3.0 mph4.8 kmh 29.74 in1007.1 mb 0.00 in0.0 mm 0.00 in0.0 mm 0.00 in0.0 mm
02:25 AM 40.0°F4.4°C 33.3°F0.7°C 77% 2.0 mph WSW3.2 kmh WSW 3.0 mph4.8 kmh 29.74 in1007.1 mb 0.00 in0.0 mm 0.00 in0.0 mm 0.00 in0.0 mm
02:20 AM 40.0°F4.4°C 33.3°F0.7°C 77% 3.0 mph WSW4.8 kmh WSW 4.0 mph6.4 kmh 29.74 in1007.1 mb 0.00 in0.0 mm 0.00 in0.0 mm 0.00 in0.0 mm
02:15 AM 40.0°F4.4°C 33.3°F0.7°C 77% 2.0 mph WSW3.2 kmh WSW 4.0 mph6.4 kmh 29.74 in1007.1 mb 0.00 in0.0 mm 0.00 in0.0 mm 0.00 in0.0 mm
02:10 AM 39.8°F4.3°C 33.1°F0.6°C 77% 3.0 mph WSW4.8 kmh WSW 4.0 mph6.4 kmh 29.75 in1007.5 mb 0.00 in0.0 mm 0.00 in0.0 mm 0.00 in0.0 mm
02:05 AM 39.7°F4.3°C 33.0°F0.6°C 77% 3.0 mph WSW4.8 kmh WSW 5.0 mph8.0 kmh 29.75 in1007.5 mb 0.00 in0.0 mm 0.00 in0.0 mm 0.00 in0.0 mm
02:00 AM 39.5°F4.2°C 32.8°F0.4°C 77% 3.0 mph WSW4.8 kmh WSW 5.0 mph8.0 kmh 29.75 in1007.5 mb 0.00 in0.0 mm 0.00 in0.0 mm 0.00 in0.0 mm
01:55 AM 39.4°F4.1°C 32.8°F0.4°C 77% 4.0 mph WSW6.4 kmh WSW 5.0 mph8.0 kmh 29.75 in1007.5 mb 0.00 in0.0 mm 0.00 in0.0 mm 0.00 in0.0 mm
01:50 AM 39.5°F4.2°C 32.8°F0.4°C 77% 3.0 mph W4.8 kmh W 5.0 mph8.0 kmh 29.75 in1007.5 mb 0.00 in0.0 mm 0.00 in0.0 mm 0.00 in0.0 mm
01:45 AM 39.7°F4.3°C 33.0°F0.6°C 77% 4.0 mph W6.4 kmh W 4.0 mph6.4 kmh 29.75 in1007.5 mb 0.00 in0.0 mm 0.00 in0.0 mm 0.00 in0.0 mm
01:40 AM 39.7°F4.3°C 33.0°F0.6°C 77% 2.0 mph WSW3.2 kmh WSW 5.0 mph8.0 kmh 29.75 in1007.5 mb 0.00 in0.0 mm 0.00 in0.0 mm 0.00 in0.0 mm
01:35 AM 39.6°F4.2°C 32.9°F0.5°C 77% 4.0 mph WSW6.4 kmh WSW 4.0 mph6.4 kmh 29.75 in1007.5 mb 0.00 in0.0 mm 0.00 in0.0 mm 0.00 in0.0 mm
01:30 AM 39.5°F4.2°C 32.8°F0.4°C 77% 4.0 mph WSW6.4 kmh WSW 5.0 mph8.0 kmh 29.75 in1007.5 mb 0.00 in0.0 mm 0.00 in0.0 mm 0.00 in0.0 mm
01:25 AM 39.5°F4.2°C 32.8°F0.4°C 77% 4.0 mph WSW6.4 kmh WSW 6.0 mph9.7 kmh 29.75 in1007.5 mb 0.00 in0.0 mm 0.00 in0.0 mm 0.00 in0.0 mm
01:20 AM 39.4°F4.1°C 33.1°F0.6°C 78% 5.0 mph WSW8.0 kmh WSW 6.0 mph9.7 kmh 29.75 in1007.5 mb 0.00 in0.0 mm 0.00 in0.0 mm 0.00 in0.0 mm
01:15 AM 39.3°F4.1°C 32.7°F0.4°C 77% 4.0 mph WSW6.4 kmh WSW 6.0 mph9.7 kmh 29.76 in1007.8 mb 0.00 in0.0 mm 0.00 in0.0 mm 0.00 in0.0 mm
01:10 AM 39.3°F4.1°C 32.7°F0.4°C 77% 3.0 mph WSW4.8 kmh WSW 5.0 mph8.0 kmh 29.76 in1007.8 mb 0.00 in0.0 mm 0.00 in0.0 mm 0.00 in0.0 mm
01:05 AM 39.3°F4.1°C 32.7°F0.4°C 77% 4.0 mph WSW6.4 kmh WSW 6.0 mph9.7 kmh 29.76 in1007.8 mb 0.00 in0.0 mm 0.00 in0.0 mm 0.00 in0.0 mm
01:00 AM 39.4°F4.1°C 32.8°F0.4°C 77% 4.0 mph WSW6.4 kmh WSW 6.0 mph9.7 kmh 29.76 in1007.8 mb 0.00 in0.0 mm 0.00 in0.0 mm 0.00 in0.0 mm
12:55 AM 39.5°F4.2°C 32.5°F0.3°C 76% 3.0 mph 4.8 kmh 5.0 mph8.0 kmh 29.77 in1008.1 mb 0.00 in0.0 mm 0.00 in0.0 mm 0.00 in0.0 mm
12:50 AM 39.7°F4.3°C 32.7°F0.4°C 76% 3.0 mph WSW4.8 kmh WSW 6.0 mph9.7 kmh 29.77 in1008.1 mb 0.00 in0.0 mm 0.00 in0.0 mm 0.00 in0.0 mm
12:45 AM 39.8°F4.3°C 33.1°F0.6°C 77% 4.0 mph 6.4 kmh 7.0 mph11.3 kmh 29.77 in1008.1 mb 0.00 in0.0 mm 0.00 in0.0 mm 0.00 in0.0 mm
12:40 AM 39.8°F4.3°C 32.8°F0.4°C 76% 3.0 mph 4.8 kmh 6.0 mph9.7 kmh 29.77 in1008.1 mb 0.00 in0.0 mm 0.00 in0.0 mm 0.00 in0.0 mm
12:35 AM 39.9°F4.4°C 32.9°F0.5°C 76% 6.0 mph WSW9.7 kmh WSW 6.0 mph9.7 kmh 29.77 in1008.1 mb 0.00 in0.0 mm 0.00 in0.0 mm 0.00 in0.0 mm
12:30 AM 39.9°F4.4°C 32.9°F0.5°C 76% 4.0 mph WSW6.4 kmh WSW 6.0 mph9.7 kmh 29.78 in1008.5 mb 0.00 in0.0 mm 0.00 in0.0 mm 0.00 in0.0 mm
12:25 AM 40.1°F4.5°C 33.1°F0.6°C 76% 3.0 mph WSW4.8 kmh WSW 7.0 mph11.3 kmh 29.78 in1008.5 mb 0.00 in0.0 mm 0.00 in0.0 mm 0.00 in0.0 mm
12:20 AM 40.2°F4.6°C 33.2°F0.7°C 76% 3.0 mph WSW4.8 kmh WSW 5.0 mph8.0 kmh 29.78 in1008.5 mb 0.00 in0.0 mm 0.00 in0.0 mm 0.00 in0.0 mm
12:15 AM 40.2°F4.6°C 33.2°F0.7°C 76% 5.0 mph W8.0 kmh W 5.0 mph8.0 kmh 29.78 in1008.5 mb 0.00 in0.0 mm 0.00 in0.0 mm 0.00 in0.0 mm
12:10 AM 40.3°F4.6°C 33.0°F0.6°C 75% 3.0 mph WSW4.8 kmh WSW 5.0 mph8.0 kmh 29.78 in1008.5 mb 0.00 in0.0 mm 0.00 in0.0 mm 0.00 in0.0 mm
12:05 AM 40.4°F4.7°C 33.1°F0.6°C 75% 2.0 mph WSW3.2 kmh WSW 6.0 mph9.7 kmh 29.78 in1008.5 mb 0.00 in0.0 mm 0.00 in0.0 mm 0.00 in0.0 mm
12:00 AM 40.4°F4.7°C 33.1°F0.6°C 75% 4.0 mph WSW6.4 kmh WSW 6.0 mph9.7 kmh 29.79 in1008.8 mb 0.00 in0.0 mm 0.00 in0.0 mm 0.00 in0.0 mm